Troy, MI

5:12 AM EDT on May 24, 2017 (GMT -0400)
Troy

Weather History for KVLL - May, 2014

Change the Weather History Date:

Sunday, May 11, 2014

  Actual Average (KDET) Record (KDET)
Temperature  
Mean Temperature 62 °F -  
Max Temperature 77 °F 70 °F 86 °F (1979)
Min Temperature 47 °F 49 °F 33 °F (1949)
Degree Days  
Heating Degree Days 3    
Growing Degree Days 12 (Base 50)    
Moisture  
Dew Point 42 °F    
Average Humidity 46    
Maximum Humidity 75    
Minimum Humidity 26    
Precipitation  
Precipitation 0.00 in - - ()
Sea Level Pressure  
Sea Level Pressure 30.04 in    
Wind  
Wind Speed 4 mph (South)    
Max Wind Speed 10 mph    
Max Gust Speed 17 mph    
Visibility 10 miles    
Events      
Averages and records for this station are not official NWS values.
T = Trace of Precipitation, MM = Missing Value Source: NWS Daily Summary

Daily Weather History Graph

Daily Weather History Graph

Search for Another Location

Airport or City:

Trip Planner

Search our weather history database for the weather conditions in past years. The results will help you decide how hot, cold, wet, or windy it might be!

Date:

Astronomy

May. 11, 2014 Rise Set
Actual Time 6:15 AM EDT 8:43 PM EDT
Civil Twilight 5:43 AM EDT 9:15 PM EDT
Nautical Twilight 5:03 AM EDT 9:55 PM EDT
Astronomical Twilight 4:19 AM EDT 10:40 PM EDT
Moon 5:34 PM EDT (5/11) 4:24 AM EDT (5/11)
Length of Visible Light 15h 32m
Length of Day
14h 28m
Waxing Gibbous, 89% of the Moon is Illuminated
May 11
Waxing Gibbous
May 14
Full
May 21
Last Quarter
May 28
New
Jun 5
First Quarter

Hourly Weather History & Observations

Time (EDT) Temp. Dew Point Humidity Pressure Visibility Wind Dir Wind Speed Gust Speed Precip Events Conditions
12:15 AM 57.2 °F 37.4 °F 48% 30.00 in 10.0 mi West 3.5 mph - N/A   Clear
12:35 AM 55.8 °F 37.9 °F 51% 30.00 in 10.0 mi West 3.5 mph - N/A   Clear
12:55 AM 55.4 °F 37.9 °F 52% 30.01 in 10.0 mi West 4.6 mph - N/A   Clear
1:15 AM 54.7 °F 38.1 °F 54% 30.02 in 10.0 mi WNW 3.5 mph - N/A   Clear
1:35 AM 54.1 °F 38.3 °F 55% 30.02 in 10.0 mi West 4.6 mph - N/A   Clear
1:55 AM 54.3 °F 38.1 °F 54% 30.02 in 10.0 mi WNW 4.6 mph - N/A   Clear
2:15 AM 54.7 °F 37.9 °F 53% 30.02 in 10.0 mi NW 4.6 mph - N/A   Clear
2:34 AM 54.0 °F 37.9 °F 55% 30.02 in 10.0 mi WNW 3.5 mph - N/A   Clear
2:55 AM 53.6 °F 37.8 °F 55% 30.02 in 10.0 mi WNW 4.6 mph - N/A   Clear
3:15 AM 53.4 °F 37.4 °F 55% 30.02 in 10.0 mi NW 4.6 mph - N/A   Clear
3:34 AM 53.4 °F 37.4 °F 55% 30.02 in 10.0 mi Calm Calm - N/A   Clear
3:55 AM 52.7 °F 37.6 °F 56% 30.04 in 10.0 mi West 3.5 mph - N/A   Clear
4:15 AM 52.3 °F 37.8 °F 58% 30.05 in 10.0 mi West 3.5 mph - N/A   Clear
4:35 AM 50.5 °F 37.9 °F 62% 30.04 in 10.0 mi Calm Calm - N/A   Clear
4:55 AM 49.1 °F 39.2 °F 69% 30.06 in 10.0 mi Calm Calm - N/A   Clear
5:15 AM 48.2 °F 39.4 °F 72% 30.05 in 10.0 mi Calm Calm - N/A   Clear
5:35 AM 48.9 °F 39.4 °F 70% 30.06 in 10.0 mi Calm Calm - N/A   Clear
5:55 AM 47.7 °F 39.2 °F 72% 30.06 in 10.0 mi Calm Calm - N/A   Clear
6:14 AM 47.1 °F 39.6 °F 75% 30.07 in 10.0 mi Calm Calm - N/A   Clear
6:35 AM 47.3 °F 39.7 °F 75% 30.07 in 10.0 mi Calm Calm - N/A   Clear
6:55 AM 48.4 °F 40.1 °F 73% 30.07 in 10.0 mi Calm Calm - N/A   Clear
7:14 AM 49.8 °F 40.6 °F 71% 30.07 in 10.0 mi Calm Calm - N/A   Clear
7:35 AM 50.9 °F 40.8 °F 68% 30.07 in 10.0 mi Calm Calm - N/A   Clear
7:54 AM 52.0 °F 41.4 °F 67% 30.08 in 10.0 mi Calm Calm - N/A   Clear
8:15 AM 54.5 °F 41.5 °F 62% 30.09 in 10.0 mi Calm Calm - N/A   Clear
8:35 AM 56.8 °F 40.8 °F 55% 30.09 in 10.0 mi Calm Calm - N/A   Clear
8:55 AM 58.8 °F 40.3 °F 50% 30.10 in 10.0 mi South 3.5 mph - N/A   Scattered Clouds
9:15 AM 60.6 °F 39.2 °F 45% 30.10 in 10.0 mi South 5.8 mph - N/A   Clear
9:35 AM 62.1 °F 37.9 °F 41% 30.09 in 10.0 mi South 6.9 mph - N/A   Clear
9:55 AM 63.7 °F 37.2 °F 38% 30.09 in 10.0 mi South 5.8 mph - N/A   Clear
10:15 AM 65.3 °F 37.0 °F 35% 30.09 in 10.0 mi SSW 8.1 mph - N/A   Clear
10:34 AM 66.6 °F 37.4 °F 34% 30.09 in 10.0 mi SSW 3.5 mph - N/A   Clear
10:55 AM 66.4 °F 37.6 °F 35% 30.09 in 10.0 mi SSW 5.8 mph - N/A   Mostly Cloudy
11:15 AM 68.0 °F 37.9 °F 33% 30.09 in 10.0 mi SSW 8.1 mph - N/A   Overcast
11:34 AM 68.2 °F 38.5 °F 34% 30.10 in 10.0 mi South 9.2 mph - N/A   Overcast
11:55 AM 68.7 °F 38.7 °F 33% 30.09 in 10.0 mi SSW 8.1 mph - N/A   Overcast
12:15 PM 70.2 °F 39.4 °F 33% 30.09 in 10.0 mi South 6.9 mph - N/A   Scattered Clouds
12:35 PM 70.7 °F 39.6 °F 32% 30.07 in 10.0 mi SSE 4.6 mph - N/A   Clear
12:55 PM 71.8 °F 39.0 °F 30% 30.07 in 10.0 mi South 5.8 mph - N/A   Clear
1:15 PM 73.0 °F 39.7 °F 30% 30.05 in 10.0 mi South 5.8 mph - N/A   Clear
1:35 PM 73.9 °F 41.0 °F 30% 30.05 in 10.0 mi SSE 4.6 mph - N/A   Clear
1:55 PM 74.3 °F 40.3 °F 29% 30.05 in 10.0 mi South 5.8 mph - N/A   Clear
2:14 PM 75.2 °F 39.6 °F 28% 30.04 in 10.0 mi South 8.1 mph - N/A   Clear
2:35 PM 75.7 °F 39.6 °F 27% 30.03 in 10.0 mi South 8.1 mph - N/A   Clear
2:55 PM 76.3 °F 38.7 °F 26% 30.04 in 10.0 mi South 9.2 mph - N/A   Clear
3:14 PM 76.5 °F 40.6 °F 28% 30.04 in 10.0 mi South 9.2 mph - N/A   Clear
3:35 PM 76.5 °F 39.0 °F 26% 30.03 in 10.0 mi South 10.4 mph - N/A   Clear
3:55 PM 77.0 °F 41.7 °F 28% 30.02 in 10.0 mi SSE 9.2 mph - N/A   Clear
4:15 PM 75.9 °F 41.0 °F 29% 30.02 in 10.0 mi SSE 8.1 mph 17.3 mph N/A   Clear
4:35 PM 76.1 °F 41.5 °F 29% 30.03 in 10.0 mi SSE 9.2 mph - N/A   Clear
4:55 PM 76.3 °F 42.1 °F 29% 30.03 in 10.0 mi South 5.8 mph 9.2 mph N/A   Clear
5:15 PM 77.0 °F 43.3 °F 30% 30.02 in 10.0 mi South 8.1 mph - N/A   Clear
5:35 PM 76.8 °F 44.2 °F 31% 30.01 in 10.0 mi South 6.9 mph - N/A   Clear
5:54 PM 77.4 °F 45.7 °F 32% 30.01 in 10.0 mi South 6.9 mph - N/A   Clear
6:15 PM 76.8 °F 47.5 °F 35% 30.01 in 10.0 mi SSE 5.8 mph - N/A   Clear
6:35 PM 76.8 °F 48.9 °F 37% 30.00 in 10.0 mi South 8.1 mph - N/A   Clear
6:55 PM 76.1 °F 50.7 °F 41% 30.00 in 10.0 mi SSE 5.8 mph - N/A   Clear
7:15 PM 76.5 °F 51.3 °F 41% 29.99 in 10.0 mi SE 5.8 mph - N/A   Clear
7:34 PM 76.1 °F 51.4 °F 42% 29.99 in 10.0 mi SE 6.9 mph - N/A   Clear
7:55 PM 74.7 °F 50.5 °F 43% 29.99 in 10.0 mi East 9.2 mph - N/A   Clear
8:15 PM 72.9 °F 50.5 °F 45% 30.00 in 10.0 mi ESE 4.6 mph - N/A   Clear
8:34 PM 72.5 °F 50.9 °F 47% 30.00 in 10.0 mi East 3.5 mph - N/A   Clear
8:55 PM 71.6 °F 50.5 °F 47% 30.01 in 10.0 mi ESE 6.9 mph - N/A   Clear
9:15 PM 70.7 °F 50.2 °F 48% 30.02 in 10.0 mi ESE 3.5 mph - N/A   Clear
9:35 PM 70.0 °F 49.5 °F 48% 30.03 in 10.0 mi SE 4.6 mph - N/A   Clear
9:55 PM 69.3 °F 49.5 °F 49% 30.03 in 10.0 mi ESE 3.5 mph - N/A   Clear
10:15 PM 68.5 °F 48.0 °F 48% 30.03 in 10.0 mi East 5.8 mph - N/A   Clear
10:35 PM 67.5 °F 45.7 °F 46% 30.02 in 10.0 mi ESE 3.5 mph - N/A   Clear
10:55 PM 66.7 °F 44.1 °F 44% 30.02 in 10.0 mi Calm Calm - N/A   Clear
11:14 PM 66.2 °F 44.2 °F 45% 30.02 in 10.0 mi SSE 3.5 mph - N/A   Clear
11:35 PM 65.8 °F 43.5 °F 44% 30.01 in 10.0 mi Calm Calm - N/A   Clear
11:55 PM 65.3 °F 43.3 °F 45% 30.00 in 10.0 mi Calm Calm - N/A   Clear